Time;durP1;ratioP1;P1;durP2;ratioP2;P2;SDS_P1;SDS_P2;PMS_P1;PMS_P2;Temp;Humidity;BMP_temperature;BMP_pressure;BME280_temperature;BME280_humidity;BME280_pressure;Samples;Min_cycle;Max_cycle;Signal;HPM_P1;HPM_P2
2023/04/23 00:01:58;;;;;;;3.47;2.80;;;;;;;14.80;70.28;97641.75;7420282;19;19922;-78
2023/04/23 00:04:25;;;;;;;3.83;2.58;;;;;;;14.83;70.20;97646.66;7423238;19;19922;-79
2023/04/23 00:06:53;;;;;;;4.53;2.65;;;;;;;14.84;70.72;97645.63;7412559;19;19929;-78
2023/04/23 00:09:21;;;;;;;3.13;2.55;;;;;;;14.84;70.55;97634.97;7406828;19;21000;-79
2023/04/23 00:11:48;;;;;;;4.13;3.08;;;;;;;14.85;70.66;97641.97;7400891;19;19922;-78
2023/04/23 00:14:15;;;;;;;3.30;2.33;;;;;;;14.86;70.34;97646.25;7403609;19;19930;-78
2023/04/23 00:16:42;;;;;;;3.45;2.70;;;;;;;14.87;70.17;97641.75;7400084;19;19934;-79
2023/04/23 00:19:09;;;;;;;2.92;2.25;;;;;;;14.89;70.37;97650.34;7399277;19;21172;-79
2023/04/23 00:21:36;;;;;;;3.88;3.05;;;;;;;14.87;70.50;97647.06;7402150;19;19927;-78
2023/04/23 00:24:02;;;;;;;3.97;2.75;;;;;;;14.86;70.06;97646.25;7398853;19;19919;-79
2023/04/23 00:26:29;;;;;;;3.35;2.20;;;;;;;14.83;70.08;97644.00;7398457;19;20359;-78
2023/04/23 00:28:56;;;;;;;3.67;2.33;;;;;;;14.78;69.95;97648.28;7394738;19;19974;-78
2023/04/23 00:31:23;;;;;;;4.10;2.72;;;;;;;14.80;69.41;97647.06;7387393;19;19925;-78
2023/04/23 00:33:50;;;;;;;4.10;2.55;;;;;;;14.73;69.56;97632.09;7392823;19;19977;-78
2023/04/23 00:36:17;;;;;;;3.72;2.40;;;;;;;14.75;69.60;97654.00;7396871;19;19933;-78
2023/04/23 00:38:44;;;;;;;4.57;3.00;;;;;;;14.62;68.08;97657.44;7386242;19;20889;-78
2023/04/23 00:41:10;;;;;;;3.47;3.17;;;;;;;14.67;68.90;97652.34;7384400;19;19918;-78
2023/04/23 00:43:37;;;;;;;2.85;2.30;;;;;;;14.64;68.85;97663.38;7390200;19;19927;-78
2023/04/23 00:46:04;;;;;;;9.05;7.93;;;;;;;14.56;68.79;97655.56;7381755;19;20285;-77
2023/04/23 00:48:33;;;;;;;3.20;2.30;;;;;;;14.55;69.57;97652.09;7387792;19;19914;-78
2023/04/23 00:51:04;;;;;;;4.07;2.33;;;;;;;14.52;70.45;97654.31;7386744;19;19943;-76
2023/04/23 00:53:32;;;;;;;3.42;2.20;;;;;;;14.51;70.22;97664.13;7394856;19;19918;-78
2023/04/23 00:56:00;;;;;;;6.32;2.50;;;;;;;14.47;70.13;97660.22;7389286;19;19915;-77
2023/04/23 00:58:28;;;;;;;3.70;2.38;;;;;;;14.41;70.45;97663.66;7382427;19;19929;-77
2023/04/23 01:00:55;;;;;;;2.33;2.03;;;;;;;14.39;70.20;97671.84;7381920;19;20398;-77
2023/04/23 01:03:24;;;;;;;2.88;2.22;;;;;;;14.36;70.93;97672.22;7388579;19;19919;-77
2023/04/23 01:05:51;;;;;;;3.97;2.45;;;;;;;14.39;71.64;97677.16;7389179;19;20070;-77
2023/04/23 01:08:19;;;;;;;4.20;2.28;;;;;;;14.32;72.25;97672.81;7391945;19;19974;-77
2023/04/23 01:10:46;;;;;;;3.65;2.65;;;;;;;14.28;72.50;97678.53;7389989;19;19918;-79
2023/04/23 01:13:14;;;;;;;5.30;2.92;;;;;;;14.31;73.75;97684.50;7393267;19;19919;-79
2023/04/23 01:15:42;;;;;;;3.42;2.60;;;;;;;14.24;73.37;97679.13;7390816;19;19918;-78
2023/04/23 01:18:09;;;;;;;3.00;2.22;;;;;;;14.13;73.63;97687.66;7384385;19;19945;-78
2023/04/23 01:20:38;;;;;;;5.15;3.50;;;;;;;14.15;73.69;97683.78;7382882;19;19931;-78
2023/04/23 01:23:05;;;;;;;4.43;2.50;;;;;;;14.16;74.02;97689.91;7240837;19;2720374;-78
2023/04/23 01:25:32;;;;;;;3.97;2.35;;;;;;;14.16;74.19;97695.25;7393711;19;19918;-78
2023/04/23 01:27:59;;;;;;;4.88;2.95;;;;;;;14.13;74.76;97690.31;7388794;19;19935;-78
2023/04/23 01:30:27;;;;;;;2.78;2.35;;;;;;;14.03;74.99;97688.00;7384748;19;19936;-78
2023/04/23 01:32:55;;;;;;;3.42;2.50;;;;;;;14.16;75.11;97692.56;7382779;19;19926;-77
2023/04/23 01:35:22;;;;;;;4.65;3.17;;;;;;;14.13;74.73;97687.66;7384185;19;19954;-77
2023/04/23 01:37:53;;;;;;;4.38;2.88;;;;;;;13.96;73.82;97695.94;7380970;19;19928;-76
2023/04/23 01:40:20;;;;;;;;;;;;;;;13.95;73.67;97696.13;7391600;19;19914;-78
2023/04/23 01:42:47;;;;;;;3.45;2.38;;;;;;;13.90;73.75;97707.34;7389414;19;19935;-77
2023/04/23 01:45:14;;;;;;;4.72;2.65;;;;;;;13.83;73.28;97711.78;7389891;19;19922;-77
2023/04/23 01:47:41;;;;;;;3.78;2.63;;;;;;;13.98;73.47;97709.88;7386835;19;19922;-78
2023/04/23 01:50:08;;;;;;;4.63;2.80;;;;;;;14.00;74.26;97714.97;7386258;19;19943;-78
2023/04/23 01:52:35;;;;;;;4.45;3.90;;;;;;;13.93;74.23;97712.28;7387452;19;20515;-78
2023/04/23 01:55:02;;;;;;;3.88;3.47;;;;;;;13.79;74.29;97714.00;7383188;19;19934;-78
2023/04/23 01:57:29;;;;;;;5.93;3.17;;;;;;;13.76;74.46;97711.72;7387993;19;19919;-78
2023/04/23 02:00:07;;;;;;;4.13;2.80;;;;;;;13.73;74.06;97708.63;7387283;19;19919;-78
2023/04/23 02:02:41;;;;;;;3.90;2.80;;;;;;;13.70;73.72;97714.34;7385762;19;19914;-77
2023/04/23 02:05:17;;;;;;;4.65;3.35;;;;;;;13.75;74.40;97715.41;7387049;19;19955;-77
2023/04/23 02:07:45;;;;;;;5.28;3.28;;;;;;;13.70;73.80;97709.84;7386570;19;20790;-77
2023/04/23 02:10:13;;;;;;;3.55;2.97;;;;;;;13.77;74.45;97718.72;7387284;19;19937;-77
2023/04/23 02:12:39;;;;;;;4.50;3.60;;;;;;;13.74;73.85;97712.94;7388385;19;20516;-77
2023/04/23 02:15:08;;;;;;;3.78;2.97;;;;;;;13.77;74.17;97717.88;7392088;19;20346;-77
2023/04/23 02:17:35;;;;;;;3.38;3.08;;;;;;;13.80;74.61;97715.66;7392008;19;19918;-77
2023/04/23 02:20:02;;;;;;;4.32;3.03;;;;;;;13.81;75.03;97713.81;7391441;19;19995;-77
2023/04/23 02:22:30;;;;;;;3.83;2.55;;;;;;;13.77;74.49;97731.16;7395520;19;19945;-78
2023/04/23 02:24:58;;;;;;;3.63;3.33;;;;;;;13.77;75.07;97739.13;7389754;19;19918;-77
2023/04/23 02:27:25;;;;;;;4.00;3.05;;;;;;;13.78;75.85;97740.78;7389967;19;19931;-77
2023/04/23 02:29:52;;;;;;;3.70;3.40;;;;;;;13.75;75.64;97728.69;7382949;19;19965;-77
2023/04/23 02:32:19;;;;;;;4.30;3.38;;;;;;;13.68;76.10;97734.97;7389033;19;19944;-77
2023/04/23 02:34:46;;;;;;;4.22;3.35;;;;;;;13.67;76.37;97738.66;7385369;19;19923;-77
2023/04/23 02:37:12;;;;;;;6.07;4.03;;;;;;;13.64;76.84;97736.34;7378363;19;19934;-76
2023/04/23 02:39:39;;;;;;;5.65;3.00;;;;;;;13.63;77.06;97743.50;7382204;19;19918;-76
2023/04/23 02:42:07;;;;;;;4.40;3.53;;;;;;;13.64;76.95;97731.03;7379735;19;19914;-76
2023/04/23 02:44:34;;;;;;;4.13;2.97;;;;;;;13.57;77.86;97734.47;7383322;19;19914;-76
2023/04/23 02:47:00;;;;;;;5.38;3.17;;;;;;;13.65;77.94;97730.03;7380787;19;19922;-76
2023/04/23 02:49:27;;;;;;;4.85;3.28;;;;;;;13.61;77.83;97729.59;7384203;19;19950;-76
2023/04/23 02:51:54;;;;;;;4.30;3.05;;;;;;;13.59;77.79;97729.78;7377459;19;19943;-76
2023/04/23 02:54:21;;;;;;;4.18;3.03;;;;;;;13.56;78.00;97719.56;7383099;19;19927;-76
2023/04/23 02:56:48;;;;;;;5.47;4.32;;;;;;;13.60;77.99;97722.63;7384672;19;20261;-76
2023/04/23 02:59:14;;;;;;;3.65;2.90;;;;;;;13.57;78.39;97718.53;7376729;19;19921;-76
2023/04/23 03:01:42;;;;;;;4.55;4.10;;;;;;;13.58;78.33;97712.19;7378069;19;20279;-76
2023/04/23 03:04:11;;;;;;;2.95;2.53;;;;;;;13.57;78.55;97713.22;7375603;19;19966;-76
2023/04/23 03:06:37;;;;;;;3.33;2.88;;;;;;;13.56;78.31;97722.22;7382297;19;19937;-75
2023/04/23 03:09:04;;;;;;;5.82;3.00;;;;;;;13.53;78.29;97729.72;7382260;19;19931;-76
2023/04/23 03:11:31;;;;;;;3.58;3.28;;;;;;;13.54;78.47;97728.72;7389605;19;19911;-76
2023/04/23 03:13:58;;;;;;;3.05;2.72;;;;;;;13.53;78.31;97741.19;7384311;19;19929;-76
2023/04/23 03:16:27;;;;;;;4.72;3.75;;;;;;;13.48;78.47;97735.63;7388470;19;19910;-77
2023/04/23 03:18:54;;;;;;;3.97;3.65;;;;;;;13.51;78.70;97743.22;7382798;19;20362;-76
2023/04/23 03:21:21;;;;;;;3.40;3.10;;;;;;;13.46;78.95;97729.66;7387527;19;19930;-76
2023/04/23 03:23:49;;;;;;;6.65;3.50;;;;;;;13.47;78.83;97730.50;7385502;19;19922;-76
2023/04/23 03:29:28;;;;;;;;;;;;;;;13.49;78.71;97725.81;7389594;19;19985;-76
2023/04/23 03:31:55;;;;;;;4.60;3.92;;;;;;;13.47;78.89;97717.19;7386066;19;19944;-76
2023/04/23 03:34:22;;;;;;;6.47;3.88;;;;;;;13.44;78.84;97713.09;7388915;19;19915;-75
2023/04/23 03:36:49;;;;;;;4.70;4.20;;;;;;;13.42;78.68;97709.78;7386110;19;19922;-76
2023/04/23 03:39:17;;;;;;;4.78;3.20;;;;;;;13.42;78.28;97708.97;7383019;19;19947;-77
2023/04/23 03:41:48;;;;;;;5.03;4.07;;;;;;;13.35;78.79;97703.63;7388213;19;19922;-76
2023/04/23 03:44:18;;;;;;;4.68;3.08;;;;;;;13.32;78.62;97698.66;7386519;19;20363;-77
2023/04/23 03:46:45;;;;;;;4.97;3.58;;;;;;;13.29;78.84;97699.84;7384446;19;19925;-77
2023/04/23 03:49:15;;;;;;;5.28;4.78;;;;;;;13.28;79.06;97700.06;7375606;19;20243;-76
2023/04/23 03:51:43;;;;;;;4.45;3.83;;;;;;;13.31;78.68;97710.31;7383599;19;19925;-75
2023/04/23 03:54:10;;;;;;;5.03;4.57;;;;;;;13.24;78.91;97706.72;7384771;19;20310;-76
2023/04/23 03:56:43;;;;;;;5.40;4.88;;;;;;;13.23;78.86;97705.09;7387789;19;20300;-75
2023/04/23 03:59:16;;;;;;;5.10;2.83;;;;;;;13.23;79.14;97707.75;7384193;19;19921;-76
2023/04/23 04:01:44;;;;;;;4.15;3.75;;;;;;;13.21;79.00;97713.22;7381003;19;20335;-76
2023/04/23 04:04:11;;;;;;;4.80;3.40;;;;;;;13.22;79.12;97714.03;7383385;19;20356;-76
2023/04/23 04:06:38;;;;;;;3.40;2.97;;;;;;;13.22;79.11;97722.00;7385088;19;20364;-76
2023/04/23 04:09:08;;;;;;;2.90;2.60;;;;;;;13.25;79.01;97724.31;7382941;19;19919;-75
2023/04/23 04:11:35;;;;;;;5.72;3.95;;;;;;;13.24;79.04;97733.28;7385832;19;20300;-75
2023/04/23 04:14:02;;;;;;;3.55;3.20;;;;;;;13.23;79.07;97745.75;7384956;19;19938;-75
2023/04/23 04:16:29;;;;;;;3.53;2.72;;;;;;;13.26;79.19;97736.59;7388717;19;19922;-75
2023/04/23 04:18:56;;;;;;;5.10;3.13;;;;;;;13.26;79.23;97737.44;7381534;19;19939;-75
2023/04/23 04:21:22;;;;;;;4.15;3.03;;;;;;;13.25;79.18;97733.09;7382037;19;19947;-75
2023/04/23 04:23:49;;;;;;;3.90;3.47;;;;;;;13.27;79.26;97738.25;7384291;19;19919;-75
2023/04/23 04:26:17;;;;;;;4.95;4.53;;;;;;;13.28;79.11;97732.75;7385749;19;20244;-75
2023/04/23 04:28:44;;;;;;;3.95;2.53;;;;;;;13.25;nan;97726.97;7387213;19;19922;-75
2023/04/23 04:31:15;;;;;;;3.00;2.40;;;;;;;13.22;78.93;97722.88;7382851;19;19986;-75
2023/04/23 04:33:42;;;;;;;4.47;4.18;;;;;;;13.15;78.80;97725.44;7387387;19;20407;-75
2023/04/23 04:36:08;;;;;;;3.05;2.65;;;;;;;13.04;78.66;97731.25;7383538;19;19922;-75
2023/04/23 04:38:38;;;;;;;4.53;4.13;;;;;;;13.02;78.29;97735.91;7387615;19;20222;-75
2023/04/23 04:41:05;;;;;;;3.22;2.47;;;;;;;12.97;78.39;97743.63;7381302;19;19919;-75
2023/04/23 04:43:33;;;;;;;3.25;2.17;;;;;;;12.96;78.43;97747.28;7389179;19;19922;-75
2023/04/23 04:46:00;;;;;;;2.55;2.30;;;;;;;13.00;78.63;97742.41;7382547;19;19951;-75
2023/04/23 04:48:26;;;;;;;4.07;2.85;;;;;;;12.99;78.86;97738.94;7391060;19;19922;-75
2023/04/23 04:50:53;;;;;;;2.30;2.10;;;;;;;13.02;78.94;97746.53;7383681;19;19968;-75
2023/04/23 04:53:20;;;;;;;3.05;2.45;;;;;;;13.04;79.17;97744.53;7382115;19;19943;-75
2023/04/23 04:55:47;;;;;;;2.65;2.40;;;;;;;13.04;78.91;97733.91;7380181;19;19947;-75
2023/04/23 04:58:14;;;;;;;2.97;2.38;;;;;;;13.05;78.77;97745.34;7382804;19;19926;-75
2023/04/23 05:00:41;;;;;;;3.15;2.92;;;;;;;13.07;78.87;97738.00;7386857;19;20281;-75
2023/04/23 05:03:08;;;;;;;2.75;2.42;;;;;;;13.09;79.07;97742.13;7384194;19;19929;-75
2023/04/23 05:05:38;;;;;;;2.70;2.47;;;;;;;13.06;79.18;97749.63;7387549;19;19937;-76
2023/04/23 05:08:05;;;;;;;2.83;2.55;;;;;;;13.10;79.22;97749.06;7377631;19;19915;-76
2023/04/23 05:10:32;;;;;;;2.53;2.10;;;;;;;13.13;79.40;97740.72;7383237;19;19931;-76
2023/04/23 05:12:59;;;;;;;3.20;2.20;;;;;;;13.19;79.40;97739.16;7382335;19;20441;-75
2023/04/23 05:15:26;;;;;;;2.72;1.98;;;;;;;13.24;79.11;97741.25;7386936;19;19956;-75
2023/04/23 05:17:53;;;;;;;2.40;2.20;;;;;;;13.27;79.31;97736.44;7384677;19;19922;-76
2023/04/23 05:20:20;;;;;;;2.55;2.35;;;;;;;13.34;79.29;97739.97;7383104;19;20373;-75
2023/04/23 05:22:47;;;;;;;5.18;2.58;;;;;;;13.45;79.47;97743.94;7386818;19;19935;-75
2023/04/23 05:25:14;;;;;;;2.42;2.15;;;;;;;13.51;79.47;97740.56;7382174;19;19935;-75
2023/04/23 05:27:41;;;;;;;3.92;2.28;;;;;;;13.63;79.71;97737.38;7387614;19;19926;-75
2023/04/23 05:30:09;;;;;;;2.00;1.90;;;;;;;13.75;80.00;97733.22;7376302;19;20494;-75
2023/04/23 05:32:36;;;;;;;2.85;2.20;;;;;;;13.87;80.31;97742.28;7385240;19;19935;-75
2023/04/23 05:35:04;;;;;;;2.20;2.00;;;;;;;13.97;80.00;97740.13;7384195;19;19922;-75
2023/04/23 05:37:30;;;;;;;2.65;2.00;;;;;;;14.04;80.33;97743.66;7386400;19;19919;-75
2023/04/23 05:39:57;;;;;;;1.85;1.52;;;;;;;14.16;80.16;97745.78;7382605;19;19987;-75
2023/04/23 05:42:24;;;;;;;2.30;1.83;;;;;;;14.16;80.01;97746.59;7386820;19;19963;-75
2023/04/23 05:44:51;;;;;;;2.25;1.90;;;;;;;14.26;79.82;97743.59;7385829;19;19929;-76
2023/04/23 05:47:18;;;;;;;2.08;1.85;;;;;;;14.32;79.38;97739.34;7382363;19;19918;-75
2023/04/23 05:49:45;;;;;;;2.63;1.60;;;;;;;14.38;79.04;97742.06;7383504;19;19914;-75
2023/04/23 05:52:12;;;;;;;3.10;2.90;;;;;;;14.45;78.77;97748.22;7378396;19;20277;-75
2023/04/23 05:54:38;;;;;;;2.60;1.75;;;;;;;14.54;78.95;97753.44;7387825;19;20328;-76
2023/04/23 05:57:05;;;;;;;3.03;2.42;;;;;;;14.51;78.20;97751.97;7382634;19;19914;-75
2023/04/23 05:59:32;;;;;;;2.95;2.03;;;;;;;14.50;77.94;97753.78;7382234;19;19964;-76
2023/04/23 06:01:59;;;;;;;3.08;2.60;;;;;;;14.52;77.64;97748.28;7384601;19;19926;-75
2023/04/23 06:04:26;;;;;;;1.50;1.40;;;;;;;14.47;77.60;97748.03;7384323;19;19937;-75
2023/04/23 06:06:53;;;;;;;1.88;1.75;;;;;;;14.44;77.08;97751.91;7381835;19;19930;-75
2023/04/23 06:09:20;;;;;;;2.00;1.42;;;;;;;14.44;77.21;97757.22;7383761;19;20525;-75
2023/04/23 06:11:49;;;;;;;2.85;2.20;;;;;;;14.39;76.99;97754.34;7386677;19;19914;-75
2023/04/23 06:14:16;;;;;;;3.15;2.95;;;;;;;14.38;76.81;97760.69;7381905;19;20458;-75
2023/04/23 06:16:42;;;;;;;1.98;1.60;;;;;;;14.43;77.33;97757.44;7385135;19;20013;-75
2023/04/23 06:19:10;;;;;;;1.80;1.48;;;;;;;14.52;77.61;97758.91;7381100;19;19951;-75
2023/04/23 06:21:37;;;;;;;1.65;1.55;;;;;;;14.62;77.88;97754.09;7383940;19;20181;-75
2023/04/23 06:27:48;;;;;;;2.85;2.65;;;;;;;14.79;77.41;97749.25;7378933;19;20328;-75
2023/04/23 06:30:19;;;;;;;1.63;1.52;;;;;;;14.85;76.82;97750.28;7366587;19;19911;-75
2023/04/23 06:32:46;;;;;;;2.20;2.00;;;;;;;14.85;76.41;97748.47;7376409;19;19943;-76
2023/04/23 06:35:13;;;;;;;1.50;1.30;;;;;;;14.90;76.30;97743.38;7374895;19;19933;-74
2023/04/23 06:37:40;;;;;;;1.58;1.35;;;;;;;14.92;76.34;97749.31;7381754;19;19918;-75
2023/04/23 06:40:07;;;;;;;1.23;1.10;;;;;;;14.96;75.83;97748.94;7376013;19;19915;-75
2023/04/23 06:42:34;;;;;;;2.28;1.10;;;;;;;14.97;75.74;97746.06;7386444;19;19923;-76
2023/04/23 06:45:12;;;;;;;1.30;1.20;;;;;;;14.99;75.50;97735.22;7382035;19;20333;-76
2023/04/23 06:47:38;;;;;;;1.65;1.35;;;;;;;15.01;75.07;97736.66;7385754;19;19923;-75
2023/04/23 06:50:07;;;;;;;1.55;1.20;;;;;;;15.03;74.69;97737.25;7372429;19;20375;-75
2023/04/23 06:52:34;;;;;;;1.60;1.13;;;;;;;14.99;74.36;97730.69;7390342;19;19943;-75
2023/04/23 06:55:01;;;;;;;1.55;1.00;;;;;;;15.00;74.19;97734.19;7388668;19;19931;-76
2023/04/23 06:57:28;;;;;;;3.60;1.13;;;;;;;15.03;74.22;97723.94;7389180;19;20352;-75
2023/04/23 06:59:55;;;;;;;1.10;0.88;;;;;;;15.01;74.55;97725.16;7385200;19;20344;-75
2023/04/23 07:02:26;;;;;;;1.27;1.17;;;;;;;15.13;74.63;97719.06;7383857;19;19922;-76
2023/04/23 07:04:53;;;;;;;1.55;1.10;;;;;;;15.18;74.93;97718.47;7388516;19;20015;-75
2023/04/23 07:07:20;;;;;;;1.63;1.38;;;;;;;15.24;75.08;97719.50;7385165;19;20029;-76
2023/04/23 07:09:46;;;;;;;2.28;1.10;;;;;;;15.28;74.76;97710.09;7385397;19;19922;-75
2023/04/23 07:12:13;;;;;;;1.55;1.10;;;;;;;15.32;74.15;97716.63;7385817;19;19947;-76
2023/04/23 07:14:40;;;;;;;1.38;1.27;;;;;;;15.30;74.17;97722.19;7392976;19;19918;-76
2023/04/23 07:17:07;;;;;;;1.20;0.82;;;;;;;15.41;74.17;97720.78;7388677;19;20189;-75
2023/04/23 07:19:34;;;;;;;1.20;1.02;;;;;;;15.51;73.50;97720.38;7387287;19;19926;-75
2023/04/23 07:22:01;;;;;;;1.95;1.13;;;;;;;15.52;73.28;97720.16;7388597;19;19958;-75
2023/04/23 07:24:28;;;;;;;1.33;0.95;;;;;;;15.45;72.26;97721.19;7388890;19;19939;-75
2023/04/23 07:26:55;;;;;;;1.20;1.02;;;;;;;15.35;71.58;97717.06;7390063;19;19915;-75
2023/04/23 07:29:21;;;;;;;1.10;0.88;;;;;;;15.37;71.73;97712.34;7380255;19;19951;-75
2023/04/23 07:31:48;;;;;;;3.00;2.80;;;;;;;15.39;72.11;97712.16;7390430;19;20309;-77
2023/04/23 07:34:17;;;;;;;1.35;0.80;;;;;;;15.47;72.21;97716.47;7387054;19;19918;-76
2023/04/23 07:36:44;;;;;;;2.00;0.95;;;;;;;15.64;72.90;97712.41;7389854;19;19943;-76
2023/04/23 07:39:11;;;;;;;1.85;1.08;;;;;;;15.77;73.20;97712.44;7382198;19;19943;-76
2023/04/23 07:41:38;;;;;;;1.95;1.73;;;;;;;15.87;71.41;97708.53;7391332;19;19922;-77
2023/04/23 07:44:05;;;;;;;4.22;1.00;;;;;;;15.98;71.79;97710.56;7386481;19;19942;-75
2023/04/23 07:46:32;;;;;;;0.90;0.80;;;;;;;16.09;71.20;97701.94;7390650;19;19925;-76
2023/04/23 07:48:59;;;;;;;0.82;0.70;;;;;;;16.08;70.80;97700.28;7389472;19;19923;-75
2023/04/23 07:51:26;;;;;;;1.15;0.95;;;;;;;16.01;70.01;97702.97;7383345;19;19913;-75
2023/04/23 07:53:53;;;;;;;1.15;1.05;;;;;;;15.87;70.22;97696.00;7389786;19;19939;-77
2023/04/23 07:56:21;;;;;;;1.92;1.83;;;;;;;15.68;69.66;97710.13;7383524;19;19919;-77
2023/04/23 07:58:48;;;;;;;0.98;0.88;;;;;;;15.59;70.35;97701.53;7393837;19;19942;-77
2023/04/23 08:01:15;;;;;;;1.10;0.95;;;;;;;15.50;70.53;97698.22;7384609;19;19926;-75
2023/04/23 08:03:41;;;;;;;1.00;0.70;;;;;;;15.43;71.72;97697.41;7388776;19;19933;-74
2023/04/23 08:06:11;;;;;;;1.85;0.73;;;;;;;15.37;71.97;97698.19;7385634;19;19946;-76
2023/04/23 08:08:38;;;;;;;1.70;1.05;;;;;;;15.23;72.04;97702.69;7357647;19;20361;-76
2023/04/23 08:11:05;;;;;;;1.13;0.98;;;;;;;15.13;71.82;97695.06;7377328;19;19914;-76
2023/04/23 08:13:32;;;;;;;1.30;1.10;;;;;;;15.09;71.68;97693.84;7390362;19;19951;-76
2023/04/23 08:15:59;;;;;;;1.35;1.25;;;;;;;15.13;72.01;97696.94;7391726;19;20587;-76
2023/04/23 08:18:26;;;;;;;2.05;0.93;;;;;;;15.17;72.40;97698.19;7386851;19;19918;-76
2023/04/23 08:20:53;;;;;;;1.05;0.90;;;;;;;15.17;72.25;97689.38;7389233;19;19918;-77
2023/04/23 08:23:20;;;;;;;1.40;0.95;;;;;;;15.22;71.83;97682.41;7388143;19;23140;-77
2023/04/23 08:25:47;;;;;;;1.55;1.02;;;;;;;15.24;72.00;97682.19;7393864;19;20355;-77
2023/04/23 08:28:13;;;;;;;1.88;1.20;;;;;;;15.29;71.93;97677.88;7387673;19;19918;-76
2023/04/23 08:30:40;;;;;;;1.35;1.05;;;;;;;15.37;71.63;97684.88;7391591;19;19943;-77
2023/04/23 08:33:07;;;;;;;2.20;1.80;;;;;;;15.27;67.64;97676.44;7393679;19;19951;-77
2023/04/23 08:35:34;;;;;;;3.47;1.55;;;;;;;15.48;69.35;97683.44;7395707;19;19923;-77
2023/04/23 08:38:01;;;;;;;1.20;1.10;;;;;;;15.69;70.65;97680.66;7395104;19;20348;-77
2023/04/23 08:40:30;;;;;;;2.00;1.90;;;;;;;15.75;67.80;97673.66;7388421;19;20863;-77
2023/04/23 08:43:01;;;;;;;1.75;1.30;;;;;;;15.83;67.25;97673.44;7390547;19;19914;-77
2023/04/23 08:45:29;;;;;;;2.05;1.42;;;;;;;16.19;67.81;97670.31;7383761;19;19918;-77
2023/04/23 08:48:00;;;;;;;1.48;1.13;;;;;;;16.48;67.66;97670.84;7390155;19;19922;-77
2023/04/23 08:50:28;;;;;;;1.55;1.05;;;;;;;16.84;67.82;97669.50;7383999;19;20929;-77
2023/04/23 08:52:56;;;;;;;2.97;1.30;;;;;;;17.03;66.04;97665.91;7397208;19;19922;-77
2023/04/23 08:55:24;;;;;;;1.80;1.23;;;;;;;17.24;65.78;97662.06;7391916;19;19918;-77
2023/04/23 08:57:51;;;;;;;1.23;1.10;;;;;;;17.45;66.01;97662.75;7390015;19;19947;-77
2023/04/23 09:00:20;;;;;;;0.85;0.85;;;;;;;17.50;65.18;97660.25;7388209;19;19921;-77
2023/04/23 09:02:47;;;;;;;1.30;0.82;;;;;;;17.76;65.63;97664.56;7395728;19;19930;-77
2023/04/23 09:05:15;;;;;;;1.00;0.95;;;;;;;17.77;65.34;97663.53;7389606;19;19918;-76
2023/04/23 09:07:42;;;;;;;1.52;1.00;;;;;;;17.87;64.23;97653.19;7397510;19;20018;-77
2023/04/23 09:10:11;;;;;;;1.35;0.80;;;;;;;17.81;61.84;97658.59;7393549;19;19946;-77
2023/04/23 09:12:41;;;;;;;1.17;0.85;;;;;;;17.99;63.39;97658.63;7397363;19;19922;-77
2023/04/23 09:15:09;;;;;;;1.45;1.23;;;;;;;18.24;62.46;97655.91;7392560;19;19922;-77
2023/04/23 09:17:43;;;;;;;1.10;0.82;;;;;;;18.53;61.63;97648.97;7394448;19;19919;-77
2023/04/23 09:20:12;;;;;;;1.67;1.23;;;;;;;18.54;59.94;97642.59;7386367;19;19922;-76
2023/04/23 09:22:48;;;;;;;1.38;1.02;;;;;;;18.60;59.80;97638.19;7395850;19;19922;-77
2023/04/23 09:25:17;;;;;;;1.88;1.02;;;;;;;18.78;60.84;97630.16;7392332;19;19918;-78
2023/04/23 09:27:45;;;;;;;1.40;1.05;;;;;;;18.78;61.43;97626.66;7396779;19;19907;-77
2023/04/23 09:30:13;;;;;;;1.30;1.20;;;;;;;18.59;60.33;97618.63;7388868;19;19922;-76
2023/04/23 09:32:41;;;;;;;1.23;1.00;;;;;;;18.52;61.24;97627.78;7389071;19;19946;-76
2023/04/23 09:35:09;;;;;;;1.63;0.82;;;;;;;18.57;60.17;97625.25;7390910;19;20030;-76
2023/04/23 09:37:41;;;;;;;1.55;0.88;;;;;;;18.57;60.81;97612.69;7393061;19;19919;-76
2023/04/23 09:40:08;;;;;;;1.15;0.77;;;;;;;18.50;59.73;97611.13;7392155;19;19919;-76
2023/04/23 09:42:36;;;;;;;1.23;0.57;;;;;;;18.49;59.48;97607.63;7393618;19;19918;-76
2023/04/23 09:45:04;;;;;;;0.88;0.77;;;;;;;18.65;62.71;97608.88;7396540;19;19918;-76
2023/04/23 09:47:33;;;;;;;1.08;0.90;;;;;;;18.70;58.13;97602.84;7387742;19;19914;-76
2023/04/23 09:50:00;;;;;;;1.70;1.05;;;;;;;18.42;58.71;97596.16;7389077;19;19914;-76
2023/04/23 09:52:30;;;;;;;1.00;0.90;;;;;;;18.58;60.32;97592.88;7383054;19;20006;-76
2023/04/23 09:54:58;;;;;;;1.20;0.85;;;;;;;18.70;60.15;97594.81;7388007;19;19918;-76
2023/04/23 09:57:25;;;;;;;1.73;1.63;;;;;;;18.84;58.95;97598.94;7382718;19;19922;-76
2023/04/23 09:59:52;;;;;;;1.52;1.42;;;;;;;18.95;57.75;97589.31;7384584;19;20272;-75
2023/04/23 10:02:38;;;;;;;1.00;0.90;;;;;;;19.23;56.54;97581.47;7387132;19;19918;-76
2023/04/23 10:05:14;;;;;;;3.05;1.30;;;;;;;19.15;58.73;97581.00;7387773;19;20359;-75
2023/04/23 10:07:55;;;;;;;1.20;0.93;;;;;;;19.14;56.13;97580.19;7386991;19;19927;-74
2023/04/23 10:10:22;;;;;;;2.58;1.20;;;;;;;19.04;58.49;97577.25;7384818;19;19914;-75
2023/04/23 10:12:52;;;;;;;1.33;1.15;;;;;;;19.14;57.21;97568.59;7387584;19;19915;-75
2023/04/23 10:15:22;;;;;;;2.13;1.98;;;;;;;19.22;59.76;97574.47;7375934;19;20289;-76
2023/04/23 10:17:50;;;;;;;1.50;0.93;;;;;;;19.29;55.67;97564.44;7387799;19;20343;-76
2023/04/23 10:20:19;;;;;;;1.35;0.73;;;;;;;19.62;53.04;97563.06;7376713;19;19915;-76
2023/04/23 10:22:46;;;;;;;1.58;0.82;;;;;;;19.97;51.37;97548.84;7385311;19;19919;-76
2023/04/23 10:25:14;;;;;;;2.15;0.80;;;;;;;20.39;54.01;97554.78;7381375;19;19948;-75
2023/04/23 10:27:42;;;;;;;2.30;0.82;;;;;;;20.23;54.43;97550.19;7385004;19;19946;-74
2023/04/23 10:30:19;;;;;;;1.02;0.93;;;;;;;20.18;51.57;97544.69;7373374;19;19914;-75
2023/04/23 10:32:47;;;;;;;1.13;0.50;;;;;;;20.37;52.72;97540.78;7385205;19;19919;-76
2023/04/23 10:35:14;;;;;;;0.75;0.60;;;;;;;20.35;51.54;97542.06;7381053;19;19957;-75
2023/04/23 10:37:41;;;;;;;1.25;0.60;;;;;;;20.25;49.90;97528.44;7387709;19;19929;-75
2023/04/23 10:40:13;;;;;;;1.65;1.55;;;;;;;20.45;51.04;97525.34;7380123;19;20285;-75
2023/04/23 10:42:42;;;;;;;0.98;0.57;;;;;;;20.33;48.25;97533.47;7387846;19;19931;-75
2023/04/23 10:45:13;;;;;;;1.05;0.60;;;;;;;20.33;50.83;97522.72;7388069;19;19926;-75
2023/04/23 10:47:49;;;;;;;0.77;0.77;;;;;;;20.48;49.19;97524.84;7383133;19;20299;-75
2023/04/23 10:50:21;;;;;;;1.73;0.93;;;;;;;20.55;48.77;97520.19;7372853;19;19929;-75
2023/04/23 10:52:55;;;;;;;1.15;0.55;;;;;;;20.55;47.33;97507.56;7382212;19;19966;-74
2023/04/23 10:55:25;;;;;;;1.10;0.45;;;;;;;20.66;47.17;97513.94;7382796;19;19943;-75
2023/04/23 10:58:06;;;;;;;1.10;0.70;;;;;;;20.82;46.08;97509.66;7380726;19;19947;-75
2023/04/23 11:00:42;;;;;;;1.25;0.40;;;;;;;20.62;47.66;97507.44;7376045;19;19923;-75
2023/04/23 11:03:29;;;;;;;0.63;0.38;;;;;;;20.83;48.86;97506.72;7382055;19;20033;-74
2023/04/23 11:05:59;;;;;;;1.27;0.77;;;;;;;20.75;45.50;97507.13;7380499;19;20314;-74
2023/04/23 11:08:30;;;;;;;0.60;0.47;;;;;;;20.95;44.91;97503.16;7379004;19;19926;-75
2023/04/23 11:10:58;;;;;;;1.42;0.63;;;;;;;21.34;45.21;97495.16;7377047;19;19918;-76
2023/04/23 11:13:26;;;;;;;0.80;0.35;;;;;;;21.46;43.31;97494.03;7376195;19;19955;-74
2023/04/23 11:16:12;;;;;;;0.70;0.43;;;;;;;22.05;42.51;97489.94;7382948;19;19926;-77
2023/04/23 11:19:03;;;;;;;2.05;0.30;;;;;;;22.98;42.21;97482.56;7378850;19;20485;-76
2023/04/23 11:22:09;;;;;;;0.40;0.32;;;;;;;23.66;39.45;97482.75;7378139;19;20350;-75
2023/04/23 11:24:41;;;;;;;2.90;0.52;;;;;;;23.87;38.97;97477.50;7377881;19;20355;-75
2023/04/23 11:27:13;;;;;;;0.65;0.63;;;;;;;23.62;38.57;97481.69;7383516;19;19919;-73
2023/04/23 11:29:42;;;;;;;1.80;0.43;;;;;;;23.25;38.74;97475.50;7376612;19;20344;-73
2023/04/23 11:32:12;;;;;;;0.75;0.57;;;;;;;23.05;38.78;97479.69;7388438;19;19922;-75
2023/04/23 11:34:40;;;;;;;1.08;0.52;;;;;;;22.50;40.82;97467.28;7387617;19;19923;-76
2023/04/23 11:37:09;;;;;;;0.68;0.68;;;;;;;22.11;40.87;97467.38;7394547;19;20233;-76
2023/04/23 11:39:37;;;;;;;1.00;0.50;;;;;;;21.84;42.30;97468.16;7385111;19;20297;-76
2023/04/23 11:42:05;;;;;;;0.70;0.50;;;;;;;21.45;44.01;97468.16;7390104;19;19958;-76
2023/04/23 11:44:31;;;;;;;1.30;0.75;;;;;;;21.30;44.41;97465.25;7386459;19;19918;-75
2023/04/23 11:47:00;;;;;;;0.80;0.52;;;;;;;21.14;43.59;97461.50;7388551;19;19955;-75